sensor_id;sensor_type;location;lat;lon;timestamp;pressure;altitude;pressure_sealevel;temperature;humidity
4617;BME280;2321;42.704;23.384;2023-02-17T00:00:11;96398.59;;;0.98;nan
4617;BME280;2321;42.704;23.384;2023-02-17T00:02:38;96391.69;;;0.97;nan
4617;BME280;2321;42.704;23.384;2023-02-17T00:05:06;96385.59;;;0.97;nan
4617;BME280;2321;42.704;23.384;2023-02-17T00:07:33;96385.69;;;0.95;nan
4617;BME280;2321;42.704;23.384;2023-02-17T00:10:00;96390.00;;;0.83;nan
4617;BME280;2321;42.704;23.384;2023-02-17T00:12:27;96379.75;;;0.80;nan
4617;BME280;2321;42.704;23.384;2023-02-17T00:14:55;96382.47;;;0.79;nan
4617;BME280;2321;42.704;23.384;2023-02-17T00:17:22;96381.63;;;0.78;nan
4617;BME280;2321;42.704;23.384;2023-02-17T00:19:49;96370.22;;;0.79;nan
4617;BME280;2321;42.704;23.384;2023-02-17T00:22:16;96377.88;;;0.82;nan
4617;BME280;2321;42.704;23.384;2023-02-17T00:24:43;96355.75;;;0.73;nan
4617;BME280;2321;42.704;23.384;2023-02-17T00:27:10;96366.25;;;0.60;nan
4617;BME280;2321;42.704;23.384;2023-02-17T00:29:37;96364.34;;;0.62;nan
4617;BME280;2321;42.704;23.384;2023-02-17T00:32:05;96370.56;;;0.61;nan
4617;BME280;2321;42.704;23.384;2023-02-17T00:34:34;96359.31;;;0.59;nan
4617;BME280;2321;42.704;23.384;2023-02-17T00:37:01;96372.31;;;0.48;nan
4617;BME280;2321;42.704;23.384;2023-02-17T00:39:28;96368.00;;;0.20;nan
4617;BME280;2321;42.704;23.384;2023-02-17T00:41:54;96382.72;;;-0.05;nan
4617;BME280;2321;42.704;23.384;2023-02-17T00:44:23;96377.56;;;-0.19;nan
4617;BME280;2321;42.704;23.384;2023-02-17T00:46:50;96361.22;;;-0.23;nan
4617;BME280;2321;42.704;23.384;2023-02-17T00:49:21;96359.91;;;-0.30;nan
4617;BME280;2321;42.704;23.384;2023-02-17T00:51:48;96367.03;;;-0.32;nan
4617;BME280;2321;42.704;23.384;2023-02-17T00:54:16;96370.19;;;-0.27;nan
4617;BME280;2321;42.704;23.384;2023-02-17T00:56:44;96369.06;;;-0.23;nan
4617;BME280;2321;42.704;23.384;2023-02-17T00:59:11;96352.44;;;-0.22;nan
4617;BME280;2321;42.704;23.384;2023-02-17T01:01:38;96360.03;;;-0.32;nan
4617;BME280;2321;42.704;23.384;2023-02-17T01:04:05;96352.91;;;-0.30;nan
4617;BME280;2321;42.704;23.384;2023-02-17T01:06:36;96348.44;;;-0.15;nan
4617;BME280;2321;42.704;23.384;2023-02-17T01:09:05;96345.31;;;-0.20;nan
4617;BME280;2321;42.704;23.384;2023-02-17T01:11:33;96341.31;;;-0.26;nan
4617;BME280;2321;42.704;23.384;2023-02-17T01:14:03;96344.38;;;-0.19;nan
4617;BME280;2321;42.704;23.384;2023-02-17T01:16:33;96334.88;;;-0.07;nan
4617;BME280;2321;42.704;23.384;2023-02-17T01:19:01;96347.28;;;-0.24;nan
4617;BME280;2321;42.704;23.384;2023-02-17T01:21:29;96347.59;;;-0.28;nan
4617;BME280;2321;42.704;23.384;2023-02-17T01:23:59;96344.00;;;-0.27;nan
4617;BME280;2321;42.704;23.384;2023-02-17T01:26:29;96339.75;;;-0.28;nan
4617;BME280;2321;42.704;23.384;2023-02-17T01:28:56;96347.09;;;-0.48;nan
4617;BME280;2321;42.704;23.384;2023-02-17T01:31:24;96347.00;;;-0.47;nan
4617;BME280;2321;42.704;23.384;2023-02-17T01:33:52;96341.03;;;-0.49;nan
4617;BME280;2321;42.704;23.384;2023-02-17T01:36:20;96347.22;;;-0.50;nan
4617;BME280;2321;42.704;23.384;2023-02-17T01:38:47;96351.88;;;-0.55;nan
4617;BME280;2321;42.704;23.384;2023-02-17T01:41:16;96347.75;;;-0.45;nan
4617;BME280;2321;42.704;23.384;2023-02-17T01:44:12;96344.63;;;-0.37;nan
4617;BME280;2321;42.704;23.384;2023-02-17T01:46:41;96349.56;;;-0.32;nan
4617;BME280;2321;42.704;23.384;2023-02-17T01:49:29;96343.94;;;-0.26;nan
4617;BME280;2321;42.704;23.384;2023-02-17T01:52:02;96340.53;;;-0.41;nan
4617;BME280;2321;42.704;23.384;2023-02-17T01:54:36;96355.72;;;-0.33;nan
4617;BME280;2321;42.704;23.384;2023-02-17T01:57:07;96349.50;;;-0.45;nan
4617;BME280;2321;42.704;23.384;2023-02-17T01:59:33;96346.50;;;-0.39;nan
4617;BME280;2321;42.704;23.384;2023-02-17T02:02:03;96335.09;;;-0.38;nan
4617;BME280;2321;42.704;23.384;2023-02-17T02:04:33;96348.00;;;-0.35;nan
4617;BME280;2321;42.704;23.384;2023-02-17T02:07:02;96333.72;;;-0.43;nan
4617;BME280;2321;42.704;23.384;2023-02-17T02:09:34;96329.63;;;-0.48;nan
4617;BME280;2321;42.704;23.384;2023-02-17T02:12:13;96327.59;;;-0.57;nan
4617;BME280;2321;42.704;23.384;2023-02-17T02:14:42;96329.94;;;-0.52;nan
4617;BME280;2321;42.704;23.384;2023-02-17T02:17:14;96325.97;;;-0.45;nan
4617;BME280;2321;42.704;23.384;2023-02-17T02:20:11;96327.91;;;-0.34;nan
4617;BME280;2321;42.704;23.384;2023-02-17T02:23:14;96327.38;;;-0.26;nan
4617;BME280;2321;42.704;23.384;2023-02-17T02:26:03;96322.47;;;-0.18;nan
4617;BME280;2321;42.704;23.384;2023-02-17T02:28:46;96324.25;;;-0.18;nan
4617;BME280;2321;42.704;23.384;2023-02-17T02:31:29;96325.94;;;-0.17;nan
4617;BME280;2321;42.704;23.384;2023-02-17T02:34:08;96321.97;;;-0.10;nan
4617;BME280;2321;42.704;23.384;2023-02-17T02:36:39;96320.59;;;-0.03;nan
4617;BME280;2321;42.704;23.384;2023-02-17T02:39:13;96326.81;;;-0.04;nan
4617;BME280;2321;42.704;23.384;2023-02-17T02:41:44;96313.81;;;-0.05;nan
4617;BME280;2321;42.704;23.384;2023-02-17T02:44:14;96328.06;;;0.04;nan
4617;BME280;2321;42.704;23.384;2023-02-17T02:46:41;96325.56;;;0.02;nan
4617;BME280;2321;42.704;23.384;2023-02-17T02:49:10;96334.88;;;0.06;nan
4617;BME280;2321;42.704;23.384;2023-02-17T02:51:44;96338.72;;;0.01;nan
4617;BME280;2321;42.704;23.384;2023-02-17T02:54:21;96336.72;;;-0.09;nan
4617;BME280;2321;42.704;23.384;2023-02-17T02:57:19;96333.78;;;-0.17;nan
4617;BME280;2321;42.704;23.384;2023-02-17T02:59:57;96334.41;;;-0.27;nan
4617;BME280;2321;42.704;23.384;2023-02-17T03:02:30;96341.91;;;-0.35;nan
4617;BME280;2321;42.704;23.384;2023-02-17T03:05:06;96344.88;;;-0.27;nan
4617;BME280;2321;42.704;23.384;2023-02-17T03:07:38;96337.78;;;-0.25;nan
4617;BME280;2321;42.704;23.384;2023-02-17T03:10:07;96339.31;;;-0.35;nan
4617;BME280;2321;42.704;23.384;2023-02-17T03:12:36;96343.59;;;-0.34;nan
4617;BME280;2321;42.704;23.384;2023-02-17T03:15:08;96336.97;;;-0.40;nan
4617;BME280;2321;42.704;23.384;2023-02-17T03:17:38;96334.47;;;-0.41;nan
4617;BME280;2321;42.704;23.384;2023-02-17T03:20:07;96338.84;;;-0.42;nan
4617;BME280;2321;42.704;23.384;2023-02-17T03:22:37;96335.50;;;-0.44;nan
4617;BME280;2321;42.704;23.384;2023-02-17T03:25:06;96338.97;;;-0.43;nan
4617;BME280;2321;42.704;23.384;2023-02-17T03:27:33;96338.13;;;-0.44;nan
4617;BME280;2321;42.704;23.384;2023-02-17T03:30:00;96332.38;;;-0.64;nan
4617;BME280;2321;42.704;23.384;2023-02-17T03:32:26;96329.50;;;-0.59;nan
4617;BME280;2321;42.704;23.384;2023-02-17T03:34:54;96312.88;;;-0.86;nan
4617;BME280;2321;42.704;23.384;2023-02-17T03:37:22;96347.53;;;-0.69;nan
4617;BME280;2321;42.704;23.384;2023-02-17T03:39:49;96341.19;;;-0.65;nan
4617;BME280;2321;42.704;23.384;2023-02-17T03:42:16;96336.16;;;-0.68;nan
4617;BME280;2321;42.704;23.384;2023-02-17T03:44:43;96334.31;;;-0.81;nan
4617;BME280;2321;42.704;23.384;2023-02-17T03:47:10;96331.72;;;-0.81;nan
4617;BME280;2321;42.704;23.384;2023-02-17T03:49:36;96327.66;;;-0.72;nan
4617;BME280;2321;42.704;23.384;2023-02-17T03:52:03;96325.69;;;-0.68;nan
4617;BME280;2321;42.704;23.384;2023-02-17T03:54:32;96322.97;;;-0.67;nan
4617;BME280;2321;42.704;23.384;2023-02-17T03:56:59;96321.78;;;-0.75;nan
4617;BME280;2321;42.704;23.384;2023-02-17T03:59:26;96322.31;;;-0.70;nan
4617;BME280;2321;42.704;23.384;2023-02-17T04:01:53;96335.50;;;-0.72;nan
4617;BME280;2321;42.704;23.384;2023-02-17T04:04:20;96332.03;;;-0.72;nan
4617;BME280;2321;42.704;23.384;2023-02-17T04:06:47;96338.72;;;-0.81;nan
4617;BME280;2321;42.704;23.384;2023-02-17T04:09:14;96340.59;;;-0.83;nan
4617;BME280;2321;42.704;23.384;2023-02-17T04:11:43;96330.88;;;-0.81;nan
4617;BME280;2321;42.704;23.384;2023-02-17T04:14:10;96326.03;;;-0.88;nan
4617;BME280;2321;42.704;23.384;2023-02-17T04:16:36;96327.94;;;-1.04;nan
4617;BME280;2321;42.704;23.384;2023-02-17T04:19:03;96326.41;;;-0.94;nan
4617;BME280;2321;42.704;23.384;2023-02-17T04:21:30;96333.28;;;-0.78;nan
4617;BME280;2321;42.704;23.384;2023-02-17T04:23:59;96337.22;;;-0.85;nan
4617;BME280;2321;42.704;23.384;2023-02-17T04:26:27;96321.09;;;-0.92;nan
4617;BME280;2321;42.704;23.384;2023-02-17T04:28:55;96324.44;;;-0.90;nan
4617;BME280;2321;42.704;23.384;2023-02-17T04:31:22;96330.97;;;-0.83;nan
4617;BME280;2321;42.704;23.384;2023-02-17T04:33:52;96335.06;;;-0.79;nan
4617;BME280;2321;42.704;23.384;2023-02-17T04:36:19;96334.41;;;-0.82;nan
4617;BME280;2321;42.704;23.384;2023-02-17T04:38:46;96327.94;;;-0.77;nan
4617;BME280;2321;42.704;23.384;2023-02-17T04:41:13;96328.97;;;-0.79;nan
4617;BME280;2321;42.704;23.384;2023-02-17T04:43:40;96337.88;;;-0.82;nan
4617;BME280;2321;42.704;23.384;2023-02-17T04:46:08;96327.31;;;-0.80;nan
4617;BME280;2321;42.704;23.384;2023-02-17T04:48:36;96327.31;;;-0.80;nan
4617;BME280;2321;42.704;23.384;2023-02-17T04:51:04;96342.81;;;-0.77;nan
4617;BME280;2321;42.704;23.384;2023-02-17T04:53:31;96341.72;;;-0.88;nan
4617;BME280;2321;42.704;23.384;2023-02-17T04:55:58;96339.41;;;-0.92;nan
4617;BME280;2321;42.704;23.384;2023-02-17T04:58:25;96338.94;;;-0.99;nan
4617;BME280;2321;42.704;23.384;2023-02-17T05:00:52;96331.13;;;-1.14;nan
4617;BME280;2321;42.704;23.384;2023-02-17T05:03:20;96337.09;;;-1.12;nan
4617;BME280;2321;42.704;23.384;2023-02-17T05:05:48;96351.00;;;-1.11;nan
4617;BME280;2321;42.704;23.384;2023-02-17T05:08:15;96339.78;;;-0.99;nan
4617;BME280;2321;42.704;23.384;2023-02-17T05:10:42;96349.78;;;-1.05;nan
4617;BME280;2321;42.704;23.384;2023-02-17T05:13:09;96350.13;;;-0.97;nan
4617;BME280;2321;42.704;23.384;2023-02-17T05:15:36;96363.78;;;-1.06;nan
4617;BME280;2321;42.704;23.384;2023-02-17T05:18:03;96364.03;;;-0.96;nan
4617;BME280;2321;42.704;23.384;2023-02-17T05:20:31;96369.00;;;-1.06;nan
4617;BME280;2321;42.704;23.384;2023-02-17T05:22:59;96366.31;;;-1.05;nan
4617;BME280;2321;42.704;23.384;2023-02-17T05:25:26;96372.38;;;-1.04;nan
4617;BME280;2321;42.704;23.384;2023-02-17T05:27:53;96363.00;;;-0.94;nan
4617;BME280;2321;42.704;23.384;2023-02-17T05:30:20;96371.84;;;-0.82;nan
4617;BME280;2321;42.704;23.384;2023-02-17T05:32:47;96368.13;;;-0.78;nan
4617;BME280;2321;42.704;23.384;2023-02-17T05:35:14;96376.31;;;-0.69;nan
4617;BME280;2321;42.704;23.384;2023-02-17T05:37:42;96383.97;;;-0.66;nan
4617;BME280;2321;42.704;23.384;2023-02-17T05:40:10;96378.84;;;-0.68;nan
4617;BME280;2321;42.704;23.384;2023-02-17T05:42:37;96379.47;;;-0.64;nan
4617;BME280;2321;42.704;23.384;2023-02-17T05:45:04;96380.31;;;-0.63;nan
4617;BME280;2321;42.704;23.384;2023-02-17T05:47:31;96385.94;;;-0.70;nan
4617;BME280;2321;42.704;23.384;2023-02-17T05:49:59;96377.44;;;-0.73;nan
4617;BME280;2321;42.704;23.384;2023-02-17T05:52:27;96377.47;;;-0.46;nan
4617;BME280;2321;42.704;23.384;2023-02-17T05:54:55;96375.34;;;-0.53;nan
4617;BME280;2321;42.704;23.384;2023-02-17T05:57:22;96388.91;;;-0.34;nan
4617;BME280;2321;42.704;23.384;2023-02-17T05:59:49;96389.66;;;-0.31;nan
4617;BME280;2321;42.704;23.384;2023-02-17T06:02:15;96393.22;;;-0.32;nan
4617;BME280;2321;42.704;23.384;2023-02-17T06:04:42;96400.03;;;-0.30;nan
4617;BME280;2321;42.704;23.384;2023-02-17T06:07:09;96407.19;;;-0.19;nan
4617;BME280;2321;42.704;23.384;2023-02-17T06:09:36;96397.91;;;-0.10;nan
4617;BME280;2321;42.704;23.384;2023-02-17T06:12:05;96403.66;;;-0.05;nan
4617;BME280;2321;42.704;23.384;2023-02-17T06:14:32;96397.31;;;-0.01;nan
4617;BME280;2321;42.704;23.384;2023-02-17T06:16:59;96397.63;;;0.08;nan
4617;BME280;2321;42.704;23.384;2023-02-17T06:19:28;96402.25;;;0.17;nan
4617;BME280;2321;42.704;23.384;2023-02-17T06:21:55;96408.53;;;0.28;nan
4617;BME280;2321;42.704;23.384;2023-02-17T06:24:22;96403.66;;;0.36;nan
4617;BME280;2321;42.704;23.384;2023-02-17T06:26:49;96397.38;;;0.39;nan
4617;BME280;2321;42.704;23.384;2023-02-17T06:29:17;96412.91;;;0.55;nan
4617;BME280;2321;42.704;23.384;2023-02-17T06:31:44;96409.94;;;0.60;nan
4617;BME280;2321;42.704;23.384;2023-02-17T06:34:11;96408.28;;;0.72;nan
4617;BME280;2321;42.704;23.384;2023-02-17T06:36:38;96413.22;;;0.77;nan
4617;BME280;2321;42.704;23.384;2023-02-17T06:39:05;96415.19;;;0.86;nan
4617;BME280;2321;42.704;23.384;2023-02-17T06:41:32;96412.03;;;0.94;nan
4617;BME280;2321;42.704;23.384;2023-02-17T06:44:02;96425.16;;;1.07;nan
4617;BME280;2321;42.704;23.384;2023-02-17T06:46:31;96423.03;;;1.12;nan
4617;BME280;2321;42.704;23.384;2023-02-17T06:48:58;96420.72;;;1.21;nan
4617;BME280;2321;42.704;23.384;2023-02-17T06:51:26;96420.78;;;1.32;nan
4617;BME280;2321;42.704;23.384;2023-02-17T06:53:53;96417.66;;;1.27;nan
4617;BME280;2321;42.704;23.384;2023-02-17T06:56:20;96427.06;;;1.43;nan
4617;BME280;2321;42.704;23.384;2023-02-17T06:58:47;96422.22;;;1.49;nan
4617;BME280;2321;42.704;23.384;2023-02-17T07:01:16;96430.16;;;1.61;nan
4617;BME280;2321;42.704;23.384;2023-02-17T07:03:45;96422.34;;;1.72;nan
4617;BME280;2321;42.704;23.384;2023-02-17T07:06:12;96426.00;;;1.83;nan
4617;BME280;2321;42.704;23.384;2023-02-17T07:08:40;96423.41;;;1.94;nan
4617;BME280;2321;42.704;23.384;2023-02-17T07:11:08;96428.47;;;2.09;nan
4617;BME280;2321;42.704;23.384;2023-02-17T07:13:35;96425.09;;;2.20;nan
4617;BME280;2321;42.704;23.384;2023-02-17T07:16:03;96431.81;;;2.36;nan
4617;BME280;2321;42.704;23.384;2023-02-17T07:18:30;96433.78;;;2.45;nan
4617;BME280;2321;42.704;23.384;2023-02-17T07:20:58;96439.66;;;2.60;nan
4617;BME280;2321;42.704;23.384;2023-02-17T07:23:25;96440.63;;;2.71;nan
4617;BME280;2321;42.704;23.384;2023-02-17T07:25:52;96444.00;;;2.85;nan
4617;BME280;2321;42.704;23.384;2023-02-17T07:28:19;96435.66;;;2.91;nan
4617;BME280;2321;42.704;23.384;2023-02-17T07:30:46;96443.31;;;3.05;nan
4617;BME280;2321;42.704;23.384;2023-02-17T07:33:13;96436.13;;;3.19;nan
4617;BME280;2321;42.704;23.384;2023-02-17T07:35:40;96447.13;;;3.36;nan
4617;BME280;2321;42.704;23.384;2023-02-17T07:38:10;96451.28;;;3.50;nan
4617;BME280;2321;42.704;23.384;2023-02-17T07:40:37;96440.53;;;3.65;nan
4617;BME280;2321;42.704;23.384;2023-02-17T07:43:04;96450.91;;;3.78;nan
4617;BME280;2321;42.704;23.384;2023-02-17T07:45:31;96445.25;;;3.94;nan
4617;BME280;2321;42.704;23.384;2023-02-17T07:47:58;96441.94;;;4.13;nan
4617;BME280;2321;42.704;23.384;2023-02-17T07:50:25;96433.84;;;4.27;nan
4617;BME280;2321;42.704;23.384;2023-02-17T07:52:52;96436.31;;;4.40;nan
4617;BME280;2321;42.704;23.384;2023-02-17T07:55:21;96427.47;;;4.62;nan
4617;BME280;2321;42.704;23.384;2023-02-17T07:57:48;96436.97;;;4.75;nan
4617;BME280;2321;42.704;23.384;2023-02-17T08:00:16;96447.31;;;4.88;nan
4617;BME280;2321;42.704;23.384;2023-02-17T08:02:43;96447.53;;;4.96;nan
4617;BME280;2321;42.704;23.384;2023-02-17T08:05:10;96447.44;;;5.08;nan
4617;BME280;2321;42.704;23.384;2023-02-17T08:07:37;96438.72;;;5.17;nan
4617;BME280;2321;42.704;23.384;2023-02-17T08:10:05;96438.63;;;5.29;nan
4617;BME280;2321;42.704;23.384;2023-02-17T08:12:51;96440.91;;;5.43;nan
4617;BME280;2321;42.704;23.384;2023-02-17T08:15:35;96443.88;;;5.60;nan
4617;BME280;2321;42.704;23.384;2023-02-17T08:18:02;96450.59;;;5.74;nan
4617;BME280;2321;42.704;23.384;2023-02-17T08:20:30;96448.53;;;5.88;nan
4617;BME280;2321;42.704;23.384;2023-02-17T08:22:57;96443.97;;;6.00;nan
4617;BME280;2321;42.704;23.384;2023-02-17T08:25:25;96436.88;;;6.10;nan
4617;BME280;2321;42.704;23.384;2023-02-17T08:27:53;96428.56;;;6.25;nan
4617;BME280;2321;42.704;23.384;2023-02-17T08:30:20;96438.84;;;6.38;nan
4617;BME280;2321;42.704;23.384;2023-02-17T08:32:47;96403.09;;;6.34;nan
4617;BME280;2321;42.704;23.384;2023-02-17T08:35:14;96430.19;;;6.66;nan
4617;BME280;2321;42.704;23.384;2023-02-17T08:37:43;96424.06;;;6.75;nan
4617;BME280;2321;42.704;23.384;2023-02-17T08:40:11;96430.28;;;6.94;nan
4617;BME280;2321;42.704;23.384;2023-02-17T08:42:37;96431.03;;;7.15;nan
4617;BME280;2321;42.704;23.384;2023-02-17T08:45:06;96429.88;;;7.27;nan
4617;BME280;2321;42.704;23.384;2023-02-17T08:47:34;96431.25;;;7.41;nan
4617;BME280;2321;42.704;23.384;2023-02-17T08:50:01;96431.72;;;7.55;nan
4617;BME280;2321;42.704;23.384;2023-02-17T08:52:28;96427.06;;;7.67;nan
4617;BME280;2321;42.704;23.384;2023-02-17T08:54:55;96424.53;;;7.76;nan
4617;BME280;2321;42.704;23.384;2023-02-17T08:57:22;96426.50;;;7.92;nan
4617;BME280;2321;42.704;23.384;2023-02-17T08:59:49;96426.28;;;8.03;nan
4617;BME280;2321;42.704;23.384;2023-02-17T09:02:17;96422.56;;;8.14;nan
4617;BME280;2321;42.704;23.384;2023-02-17T09:04:44;96432.22;;;8.34;nan
4617;BME280;2321;42.704;23.384;2023-02-17T09:07:13;96417.09;;;8.53;nan
4617;BME280;2321;42.704;23.384;2023-02-17T09:09:40;96420.75;;;8.70;nan
4617;BME280;2321;42.704;23.384;2023-02-17T09:12:07;96418.03;;;8.88;nan
4617;BME280;2321;42.704;23.384;2023-02-17T09:14:34;96413.81;;;9.04;nan
4617;BME280;2321;42.704;23.384;2023-02-17T09:17:01;96412.56;;;9.17;nan
4617;BME280;2321;42.704;23.384;2023-02-17T09:19:30;96407.31;;;9.33;nan
4617;BME280;2321;42.704;23.384;2023-02-17T09:21:57;96411.03;;;9.41;nan
4617;BME280;2321;42.704;23.384;2023-02-17T09:24:24;96414.41;;;9.59;nan
4617;BME280;2321;42.704;23.384;2023-02-17T09:26:50;96411.66;;;9.78;nan
4617;BME280;2321;42.704;23.384;2023-02-17T09:29:17;96417.31;;;9.91;nan
4617;BME280;2321;42.704;23.384;2023-02-17T09:31:44;96410.72;;;10.04;nan
4617;BME280;2321;42.704;23.384;2023-02-17T09:34:14;96405.56;;;10.19;nan
4617;BME280;2321;42.704;23.384;2023-02-17T09:36:42;96403.41;;;10.40;nan
4617;BME280;2321;42.704;23.384;2023-02-17T09:39:09;96410.47;;;10.57;nan
4617;BME280;2321;42.704;23.384;2023-02-17T09:41:41;96403.94;;;10.77;nan
4617;BME280;2321;42.704;23.384;2023-02-17T09:44:16;96397.09;;;10.91;nan
4617;BME280;2321;42.704;23.384;2023-02-17T09:46:49;96394.38;;;11.08;nan
4617;BME280;2321;42.704;23.384;2023-02-17T09:49:21;96397.50;;;11.28;nan
4617;BME280;2321;42.704;23.384;2023-02-17T09:51:55;96395.50;;;11.62;nan
4617;BME280;2321;42.704;23.384;2023-02-17T09:54:30;96394.28;;;12.05;nan
4617;BME280;2321;42.704;23.384;2023-02-17T09:57:01;96391.94;;;12.34;nan
4617;BME280;2321;42.704;23.384;2023-02-17T09:59:35;96395.28;;;12.60;nan
4617;BME280;2321;42.704;23.384;2023-02-17T10:02:06;96384.78;;;12.73;nan
4617;BME280;2321;42.704;23.384;2023-02-17T10:04:40;96393.66;;;12.89;nan
4617;BME280;2321;42.704;23.384;2023-02-17T10:07:15;96381.03;;;12.98;nan
4617;BME280;2321;42.704;23.384;2023-02-17T10:09:47;96383.91;;;13.12;nan
4617;BME280;2321;42.704;23.384;2023-02-17T10:12:19;96379.41;;;13.12;nan
4617;BME280;2321;42.704;23.384;2023-02-17T10:14:49;96377.84;;;13.18;nan
4617;BME280;2321;42.704;23.384;2023-02-17T10:17:24;96374.06;;;13.27;nan
4617;BME280;2321;42.704;23.384;2023-02-17T10:19:57;96370.63;;;13.34;nan
4617;BME280;2321;42.704;23.384;2023-02-17T10:22:29;96378.91;;;13.39;nan
4617;BME280;2321;42.704;23.384;2023-02-17T10:24:59;96366.66;;;13.45;nan
4617;BME280;2321;42.704;23.384;2023-02-17T10:27:32;96357.50;;;13.54;nan
4617;BME280;2321;42.704;23.384;2023-02-17T10:30:27;96360.09;;;13.63;nan
4617;BME280;2321;42.704;23.384;2023-02-17T10:33:01;96355.19;;;13.66;nan
4617;BME280;2321;42.704;23.384;2023-02-17T10:35:39;96356.66;;;13.69;nan
4617;BME280;2321;42.704;23.384;2023-02-17T10:38:15;96343.44;;;13.82;nan
4617;BME280;2321;42.704;23.384;2023-02-17T10:40:46;96346.06;;;13.98;nan
4617;BME280;2321;42.704;23.384;2023-02-17T10:43:20;96340.34;;;14.01;nan
4617;BME280;2321;42.704;23.384;2023-02-17T10:45:48;96330.88;;;14.05;nan
4617;BME280;2321;42.704;23.384;2023-02-17T10:48:19;96333.00;;;14.10;nan
4617;BME280;2321;42.704;23.384;2023-02-17T10:50:47;96332.25;;;14.16;nan
4617;BME280;2321;42.704;23.384;2023-02-17T10:53:17;96334.91;;;14.16;nan
4617;BME280;2321;42.704;23.384;2023-02-17T10:55:53;96337.84;;;14.21;nan
4617;BME280;2321;42.704;23.384;2023-02-17T10:58:27;96336.69;;;14.09;nan
4617;BME280;2321;42.704;23.384;2023-02-17T11:00:56;96321.59;;;14.01;nan
4617;BME280;2321;42.704;23.384;2023-02-17T11:03:26;96331.72;;;14.05;nan
4617;BME280;2321;42.704;23.384;2023-02-17T11:05:54;96333.84;;;14.10;nan
4617;BME280;2321;42.704;23.384;2023-02-17T11:08:31;96328.09;;;14.13;nan
4617;BME280;2321;42.704;23.384;2023-02-17T11:11:02;96315.09;;;14.10;nan
4617;BME280;2321;42.704;23.384;2023-02-17T11:13:34;96313.56;;;14.23;nan
4617;BME280;2321;42.704;23.384;2023-02-17T11:16:01;96317.72;;;14.32;nan
4617;BME280;2321;42.704;23.384;2023-02-17T11:18:31;96297.50;;;14.23;nan
4617;BME280;2321;42.704;23.384;2023-02-17T11:21:01;96316.34;;;14.36;nan
4617;BME280;2321;42.704;23.384;2023-02-17T11:23:29;96316.97;;;14.38;nan
4617;BME280;2321;42.704;23.384;2023-02-17T11:26:00;96305.84;;;14.42;nan
4617;BME280;2321;42.704;23.384;2023-02-17T11:28:27;96305.69;;;14.43;nan
4617;BME280;2321;42.704;23.384;2023-02-17T11:30:55;96296.66;;;14.51;nan
4617;BME280;2321;42.704;23.384;2023-02-17T11:33:29;96301.69;;;14.61;nan
4617;BME280;2321;42.704;23.384;2023-02-17T11:35:56;96297.78;;;14.64;nan
4617;BME280;2321;42.704;23.384;2023-02-17T11:38:25;96296.38;;;14.68;nan
4617;BME280;2321;42.704;23.384;2023-02-17T11:40:55;96289.00;;;14.77;nan
4617;BME280;2321;42.704;23.384;2023-02-17T11:43:23;96292.69;;;14.76;nan
4617;BME280;2321;42.704;23.384;2023-02-17T11:46:10;96287.78;;;14.79;nan
4617;BME280;2321;42.704;23.384;2023-02-17T11:49:06;96287.06;;;14.92;nan
4617;BME280;2321;42.704;23.384;2023-02-17T11:51:52;96281.19;;;14.82;nan
4617;BME280;2321;42.704;23.384;2023-02-17T11:54:23;96275.06;;;14.88;nan
4617;BME280;2321;42.704;23.384;2023-02-17T11:57:03;96278.84;;;15.01;nan
4617;BME280;2321;42.704;23.384;2023-02-17T11:59:42;96282.34;;;15.01;nan
4617;BME280;2321;42.704;23.384;2023-02-17T12:02:17;96275.09;;;14.95;nan
4617;BME280;2321;42.704;23.384;2023-02-17T12:04:58;96274.22;;;14.88;nan
4617;BME280;2321;42.704;23.384;2023-02-17T12:07:39;96273.66;;;14.92;nan
4617;BME280;2321;42.704;23.384;2023-02-17T12:10:17;96276.13;;;14.94;nan
4617;BME280;2321;42.704;23.384;2023-02-17T12:12:57;96265.41;;;14.94;nan
4617;BME280;2321;42.704;23.384;2023-02-17T12:15:45;96256.53;;;14.94;nan
4617;BME280;2321;42.704;23.384;2023-02-17T12:18:28;96258.00;;;15.03;nan
4617;BME280;2321;42.704;23.384;2023-02-17T12:21:06;96260.50;;;15.05;nan
4617;BME280;2321;42.704;23.384;2023-02-17T12:23:52;96251.59;;;14.97;nan
4617;BME280;2321;42.704;23.384;2023-02-17T12:26:29;96257.59;;;14.99;nan
4617;BME280;2321;42.704;23.384;2023-02-17T12:29:15;96252.81;;;14.95;nan
4617;BME280;2321;42.704;23.384;2023-02-17T12:31:59;96230.75;;;14.92;nan
4617;BME280;2321;42.704;23.384;2023-02-17T12:34:32;96232.44;;;15.00;nan
4617;BME280;2321;42.704;23.384;2023-02-17T12:37:03;96229.16;;;15.12;nan
4617;BME280;2321;42.704;23.384;2023-02-17T12:39:36;96226.94;;;15.22;nan
4617;BME280;2321;42.704;23.384;2023-02-17T12:42:10;96234.59;;;15.25;nan
4617;BME280;2321;42.704;23.384;2023-02-17T12:44:43;96227.78;;;15.23;nan
4617;BME280;2321;42.704;23.384;2023-02-17T12:47:16;96225.50;;;15.20;nan
4617;BME280;2321;42.704;23.384;2023-02-17T12:49:51;96220.31;;;15.18;nan
4617;BME280;2321;42.704;23.384;2023-02-17T12:52:25;96217.88;;;15.23;nan
4617;BME280;2321;42.704;23.384;2023-02-17T12:54:55;96218.09;;;15.29;nan
4617;BME280;2321;42.704;23.384;2023-02-17T12:57:28;96210.66;;;15.31;nan
4617;BME280;2321;42.704;23.384;2023-02-17T13:00:00;96209.25;;;15.42;nan
4617;BME280;2321;42.704;23.384;2023-02-17T13:02:29;96202.22;;;15.41;nan
4617;BME280;2321;42.704;23.384;2023-02-17T13:05:00;96193.97;;;15.35;nan
4617;BME280;2321;42.704;23.384;2023-02-17T13:07:42;96213.38;;;15.38;nan
4617;BME280;2321;42.704;23.384;2023-02-17T13:10:21;96206.75;;;15.40;nan
4617;BME280;2321;42.704;23.384;2023-02-17T13:12:56;96211.31;;;15.46;nan
4617;BME280;2321;42.704;23.384;2023-02-17T13:15:34;96217.50;;;15.47;nan
4617;BME280;2321;42.704;23.384;2023-02-17T13:18:03;96207.19;;;15.44;nan
4617;BME280;2321;42.704;23.384;2023-02-17T13:20:52;96198.31;;;15.50;nan
4617;BME280;2321;42.704;23.384;2023-02-17T13:23:32;96196.88;;;15.48;nan
4617;BME280;2321;42.704;23.384;2023-02-17T13:26:07;96202.66;;;15.51;nan
4617;BME280;2321;42.704;23.384;2023-02-17T13:28:39;96214.63;;;15.55;nan
4617;BME280;2321;42.704;23.384;2023-02-17T13:31:16;96197.50;;;15.50;nan
4617;BME280;2321;42.704;23.384;2023-02-17T13:33:47;96199.56;;;15.48;nan
4617;BME280;2321;42.704;23.384;2023-02-17T13:36:18;96194.19;;;15.48;nan
4617;BME280;2321;42.704;23.384;2023-02-17T13:38:58;96185.31;;;15.47;nan
4617;BME280;2321;42.704;23.384;2023-02-17T13:41:27;96191.50;;;15.48;nan
4617;BME280;2321;42.704;23.384;2023-02-17T13:43:54;96187.16;;;15.46;nan
4617;BME280;2321;42.704;23.384;2023-02-17T13:46:24;96187.78;;;15.42;nan
4617;BME280;2321;42.704;23.384;2023-02-17T13:48:59;96205.31;;;15.38;nan
4617;BME280;2321;42.704;23.384;2023-02-17T13:51:29;96195.00;;;15.34;nan
4617;BME280;2321;42.704;23.384;2023-02-17T13:53:56;96182.38;;;15.28;nan